createdAt,value
2018-11-10T07:31:06.080Z,71.37
2018-11-10T07:33:34.332Z,74.53
2018-11-10T07:36:02.573Z,74.33
2018-11-10T07:38:30.789Z,69.00
2018-11-10T07:40:59.036Z,76.00
2018-11-10T07:43:27.276Z,73.90
2018-11-10T07:45:55.523Z,71.43
2018-11-10T07:48:23.748Z,72.57
2018-11-10T07:50:51.996Z,70.60
2018-11-10T07:53:20.533Z,68.10
2018-11-10T07:55:48.825Z,65.53
2018-11-10T07:58:17.029Z,71.67
2018-11-10T08:00:45.293Z,73.23
2018-11-10T08:03:13.525Z,67.30
2018-11-10T08:05:41.744Z,59.67
2018-11-10T08:08:10.010Z,70.27
2018-11-10T08:10:38.244Z,65.00
2018-11-10T08:13:06.497Z,63.10
2018-11-10T08:15:34.725Z,56.63
2018-11-10T08:18:02.977Z,68.77
2018-11-10T08:20:31.213Z,63.47
2018-11-10T08:22:59.465Z,57.10
2018-11-10T08:25:27.687Z,55.10
2018-11-10T08:27:55.934Z,61.40
2018-11-10T08:30:24.156Z,56.73
2018-11-10T08:32:52.405Z,58.90
2018-11-10T08:35:20.623Z,56.30
2018-11-10T08:37:48.867Z,54.27
2018-11-10T08:40:17.672Z,56.57
2018-11-10T08:42:46.039Z,57.53
2018-11-10T08:45:14.989Z,52.80
2018-11-10T08:47:43.864Z,53.00
2018-11-10T08:50:13.100Z,54.90
2018-11-10T08:52:41.734Z,52.70
2018-11-10T08:55:10.813Z,55.83
2018-11-10T08:57:39.110Z,50.60
2018-11-10T09:00:08.178Z,52.00
2018-11-10T09:02:36.548Z,53.43
2018-11-10T09:05:05.349Z,50.37
2018-11-10T09:07:33.587Z,46.73
2018-11-10T09:10:01.940Z,47.10
2018-11-10T09:12:30.076Z,47.90
2018-11-10T09:14:58.364Z,48.83
2018-11-10T09:17:26.560Z,45.73
2018-11-10T09:19:54.812Z,46.57
2018-11-10T09:22:23.072Z,48.53
2018-11-10T09:24:51.293Z,45.97
2018-11-10T09:27:19.557Z,45.10
2018-11-10T09:29:47.780Z,44.03
2018-11-10T09:32:16.052Z,43.30
2018-11-10T09:34:44.280Z,44.97
2018-11-10T09:37:12.541Z,37.87
2018-11-10T09:39:40.783Z,43.43
2018-11-10T09:42:09.166Z,37.83
2018-11-10T09:44:37.311Z,42.27
2018-11-10T09:47:05.944Z,38.27
2018-11-10T09:49:34.181Z,38.10
2018-11-10T09:52:02.468Z,40.73
2018-11-10T09:54:30.689Z,38.47
2018-11-10T09:56:58.915Z,42.90
2018-11-10T09:59:27.155Z,43.33
2018-11-10T10:01:55.577Z,42.90
2018-11-10T10:04:23.656Z,44.93
2018-11-10T10:06:51.888Z,45.07
2018-11-10T10:09:20.130Z,43.30
2018-11-10T10:11:48.366Z,39.33
2018-11-10T10:14:16.632Z,46.57
2018-11-10T10:16:44.947Z,46.77
2018-11-10T10:19:13.228Z,42.27
2018-11-10T10:21:41.489Z,43.87
2018-11-10T10:24:09.846Z,37.30
2018-11-10T10:26:38.076Z,40.43
2018-11-10T10:29:06.652Z,42.83
2018-11-10T10:31:34.797Z,39.73
2018-11-10T10:34:03.105Z,46.53
2018-11-10T10:36:31.277Z,38.33
2018-11-10T10:38:59.523Z,40.23
2018-11-10T10:41:27.782Z,38.97
2018-11-10T10:43:56.060Z,40.83
2018-11-10T10:46:24.280Z,38.87
2018-11-10T10:48:52.732Z,38.33
2018-11-10T10:51:20.844Z,41.40
2018-11-10T10:53:49.085Z,42.80
2018-11-10T10:56:17.312Z,42.40
2018-11-10T10:58:45.553Z,36.97
2018-11-10T11:01:19.102Z,40.70
2018-11-10T11:03:55.476Z,38.07
2018-11-10T11:06:24.267Z,39.33
2018-11-10T11:08:52.573Z,39.70
2018-11-10T11:11:20.785Z,41.07
2018-11-10T11:13:49.054Z,41.37
2018-11-10T11:16:17.276Z,39.97
2018-11-10T11:18:45.535Z,38.90
2018-11-10T11:21:13.756Z,36.10
2018-11-10T11:23:42.007Z,38.17
2018-11-10T11:26:10.249Z,35.63
2018-11-10T11:28:38.498Z,39.03
2018-11-10T11:31:06.797Z,36.90
2018-11-10T11:33:34.988Z,38.50
2018-11-10T11:36:03.213Z,34.07
2018-11-10T11:38:31.504Z,36.40
2018-11-10T11:40:59.750Z,36.87
2018-11-10T11:43:28.028Z,36.23
2018-11-10T11:45:56.248Z,38.43
2018-11-10T11:48:24.480Z,38.50
2018-11-10T11:50:52.732Z,35.37
2018-11-10T11:53:20.964Z,36.10
2018-11-10T11:55:49.204Z,35.20
2018-11-10T11:58:17.455Z,38.53
2018-11-10T12:00:45.744Z,36.80
2018-11-10T12:03:13.972Z,36.20
2018-11-10T12:05:42.208Z,36.30
2018-11-10T12:08:10.442Z,34.33
2018-11-10T12:10:38.689Z,38.57
2018-11-10T12:13:06.915Z,37.67
2018-11-10T12:15:35.174Z,39.70
2018-11-10T12:20:44.454Z,38.60
2018-11-10T12:23:12.685Z,37.23
2018-11-10T12:25:40.968Z,33.63
2018-11-10T12:28:09.200Z,31.37
2018-11-10T12:30:37.441Z,38.57
2018-11-10T12:33:05.785Z,37.23
2018-11-10T12:35:34.046Z,38.27
2018-11-10T12:38:02.281Z,47.70
2018-11-10T12:40:30.535Z,33.37
2018-11-10T12:42:58.800Z,34.87
2018-11-10T12:45:27.043Z,37.63
2018-11-10T12:47:55.272Z,38.00
2018-11-10T12:50:23.516Z,31.83
2018-11-10T12:52:51.748Z,37.87
2018-11-10T12:55:20.001Z,39.93
2018-11-10T12:57:48.260Z,37.40
2018-11-10T13:00:17.290Z,37.73
2018-11-10T13:02:45.848Z,34.27
2018-11-10T13:05:14.204Z,36.67
2018-11-10T13:07:44.128Z,35.93
2018-11-10T13:10:12.576Z,54.20
2018-11-10T13:12:41.502Z,39.37
2018-11-10T13:15:10.057Z,39.33
2018-11-10T13:17:38.649Z,35.43
2018-11-10T13:20:09.111Z,35.70
2018-11-10T13:22:37.343Z,38.57
2018-11-10T13:25:06.205Z,43.80
2018-11-10T13:27:34.440Z,36.73
2018-11-10T13:30:02.694Z,52.33
2018-11-10T13:32:30.950Z,37.73
2018-11-10T13:34:59.191Z,37.43
2018-11-10T13:37:27.440Z,32.67
2018-11-10T13:39:55.848Z,383.33
2018-11-10T13:42:24.174Z,53.10
2018-11-10T13:44:52.384Z,187.03
2018-11-10T13:47:20.644Z,49.17
2018-11-10T13:49:48.869Z,89.23
2018-11-10T13:52:17.603Z,47.73
2018-11-10T13:54:45.604Z,47.33
2018-11-10T13:57:13.860Z,78.07
2018-11-10T13:59:42.141Z,42.50
2018-11-10T14:02:10.393Z,32.30
2018-11-10T14:04:38.629Z,34.23
2018-11-10T14:07:06.893Z,30.10
2018-11-10T14:09:35.132Z,31.97
2018-11-10T14:12:03.394Z,30.00
2018-11-10T14:14:31.635Z,33.20
2018-11-10T14:16:59.888Z,31.63
2018-11-10T14:19:28.153Z,34.20
2018-11-10T14:21:56.409Z,29.57
2018-11-10T14:24:24.632Z,29.30
2018-11-10T14:26:52.897Z,33.53
2018-11-10T14:29:21.145Z,32.60
2018-11-10T14:31:49.403Z,30.53
2018-11-10T14:34:17.652Z,31.57
2018-11-10T14:36:45.908Z,31.50
2018-11-10T14:39:14.159Z,32.80
2018-11-10T14:41:42.425Z,31.43
2018-11-10T14:44:10.752Z,30.43
2018-11-10T14:46:38.944Z,32.17
2018-11-10T14:49:07.506Z,32.57
2018-11-10T14:51:35.788Z,30.70
2018-11-10T14:54:04.299Z,30.73
2018-11-10T14:56:32.524Z,30.60
2018-11-10T14:59:00.768Z,27.63
2018-11-10T15:01:29.000Z,28.03
2018-11-10T15:03:57.248Z,29.33
2018-11-10T15:06:25.488Z,32.60
2018-11-10T15:08:53.805Z,33.73
2018-11-10T15:11:22.062Z,30.03
2018-11-10T15:13:50.303Z,33.53
2018-11-10T15:16:18.545Z,29.60
2018-11-10T15:18:46.860Z,32.83
2018-11-10T15:21:15.092Z,32.40
2018-11-10T15:23:43.344Z,32.80
2018-11-10T15:26:11.570Z,28.87
2018-11-10T15:28:39.816Z,32.87
2018-11-10T15:31:08.044Z,32.97
2018-11-10T15:33:36.300Z,34.67
2018-11-10T15:36:04.537Z,41.83
2018-11-10T15:38:32.798Z,33.70
2018-11-10T15:41:01.018Z,33.03
2018-11-10T15:43:29.285Z,42.43
2018-11-10T15:45:57.508Z,31.37
2018-11-10T15:48:25.761Z,37.53
2018-11-10T15:50:53.992Z,36.73
2018-11-10T15:53:22.264Z,40.67
2018-11-10T15:55:50.488Z,40.37
2018-11-10T15:58:18.729Z,39.67
2018-11-10T16:00:47.060Z,39.23
2018-11-10T16:03:15.316Z,42.40
2018-11-10T16:05:43.543Z,39.47
2018-11-10T16:08:11.829Z,56.30
2018-11-10T16:10:40.056Z,65.07
2018-11-10T16:13:08.307Z,64.23
2018-11-10T16:15:36.562Z,51.77
2018-11-10T16:18:04.848Z,54.40
2018-11-10T16:20:33.076Z,52.17
2018-11-10T16:23:01.321Z,50.93
2018-11-10T16:25:29.575Z,51.67
2018-11-10T16:27:57.844Z,49.80
2018-11-10T16:30:26.097Z,51.80
2018-11-10T16:32:54.333Z,52.50
2018-11-10T16:35:22.556Z,61.57
2018-11-10T16:37:50.812Z,50.57
2018-11-10T16:40:19.896Z,55.47
2018-11-10T16:42:48.660Z,60.90
2018-11-10T16:45:17.812Z,65.33
2018-11-10T16:47:46.031Z,63.73
2018-11-10T16:50:14.280Z,67.07
2018-11-10T16:52:43.190Z,63.93
2018-11-10T16:55:11.523Z,64.53
2018-11-10T16:57:39.804Z,66.37
2018-11-10T17:00:10.469Z,64.83
2018-11-10T17:02:38.708Z,66.57
2018-11-10T17:05:07.284Z,71.33
2018-11-10T17:07:35.504Z,80.17
2018-11-10T17:10:03.775Z,81.37
2018-11-10T17:12:32.005Z,70.77
2018-11-10T17:15:00.249Z,75.17
2018-11-10T17:17:28.472Z,75.27
2018-11-10T17:19:56.709Z,76.53
2018-11-10T17:22:24.958Z,79.83
2018-11-10T17:24:53.215Z,79.47
2018-11-10T17:27:21.456Z,72.43
2018-11-10T17:29:49.704Z,70.67
2018-11-10T17:32:17.999Z,70.13
2018-11-10T17:34:46.237Z,76.97
2018-11-10T17:37:14.496Z,73.90
2018-11-10T17:39:42.882Z,78.13
2018-11-10T17:42:11.111Z,73.53
2018-11-10T17:44:39.327Z,76.10
2018-11-10T17:47:07.593Z,62.00
2018-11-10T17:49:35.878Z,68.60
2018-11-10T17:52:04.294Z,71.50
2018-11-10T17:54:32.504Z,68.47
2018-11-10T17:57:00.756Z,64.73
2018-11-10T17:59:29.027Z,69.23
2018-11-10T18:01:57.257Z,63.03
2018-11-10T18:04:25.512Z,74.23
2018-11-10T18:06:53.744Z,77.57
2018-11-10T18:09:22.000Z,76.67
2018-11-10T18:11:50.245Z,76.13
2018-11-10T18:14:18.484Z,74.97
2018-11-10T18:16:46.720Z,85.97
2018-11-10T18:19:14.983Z,94.17
2018-11-10T18:21:43.200Z,92.90
2018-11-10T18:24:11.452Z,102.80
2018-11-10T18:26:39.688Z,120.47
2018-11-10T18:29:08.093Z,120.37
2018-11-10T18:31:36.316Z,107.87
2018-11-10T18:34:04.728Z,101.53
2018-11-10T18:36:32.971Z,96.93
2018-11-10T18:39:01.184Z,100.93
2018-11-10T18:41:29.440Z,93.67
2018-11-10T18:43:57.664Z,98.00
2018-11-10T18:46:25.900Z,91.87
2018-11-10T18:48:54.128Z,101.33
2018-11-10T18:51:22.404Z,98.77
2018-11-10T18:53:50.633Z,90.97
2018-11-10T18:56:18.881Z,82.10
2018-11-10T18:58:47.108Z,87.23
2018-11-10T19:01:15.356Z,76.27
2018-11-10T19:03:43.586Z,81.23
2018-11-10T19:06:11.845Z,81.50
2018-11-10T19:08:40.068Z,94.07
2018-11-10T19:11:08.300Z,86.37
2018-11-10T19:13:36.906Z,91.50
2018-11-10T19:16:05.234Z,107.10
2018-11-10T19:18:33.469Z,112.40
2018-11-10T19:21:01.806Z,117.03
2018-11-10T19:23:35.070Z,112.00
2018-11-10T19:26:03.328Z,129.73
2018-11-10T19:28:31.600Z,124.40
2018-11-10T19:30:59.844Z,132.23
2018-11-10T19:33:28.069Z,120.37
2018-11-10T19:35:56.308Z,129.70
2018-11-10T19:38:24.564Z,128.87
2018-11-10T19:40:52.800Z,132.37
2018-11-10T19:43:21.090Z,101.17
2018-11-10T19:45:49.331Z,109.23
2018-11-10T19:48:17.572Z,81.03
2018-11-10T19:50:45.851Z,91.60
2018-11-10T19:53:14.057Z,97.70
2018-11-10T19:55:42.294Z,89.97
2018-11-10T19:58:10.568Z,103.37
2018-11-10T20:00:38.857Z,86.53
2018-11-10T20:03:07.096Z,76.73
2018-11-10T20:05:35.324Z,76.57
2018-11-10T20:08:03.576Z,76.17
2018-11-10T20:10:31.812Z,84.57
2018-11-10T20:13:00.236Z,81.23
2018-11-10T20:15:28.438Z,78.70
2018-11-10T20:17:56.680Z,81.33
2018-11-10T20:20:24.928Z,84.70
2018-11-10T20:22:53.160Z,96.57
2018-11-10T20:25:21.401Z,102.43
2018-11-10T20:27:49.644Z,100.33
2018-11-10T20:30:19.286Z,109.23
2018-11-10T20:32:47.576Z,103.63
2018-11-10T20:35:15.770Z,97.20
2018-11-10T20:37:44.528Z,86.37
2018-11-10T20:40:13.721Z,92.27
2018-11-10T20:42:42.140Z,111.10
2018-11-10T20:45:14.224Z,110.03
2018-11-10T20:47:42.663Z,135.40
2018-11-10T20:50:11.395Z,113.00
2018-11-10T20:52:39.611Z,122.60
2018-11-10T20:55:08.857Z,111.83
2018-11-10T20:57:37.589Z,96.83
2018-11-10T21:00:08.965Z,106.23
2018-11-10T21:02:37.191Z,108.53
2018-11-10T21:05:06.412Z,104.43
2018-11-10T21:07:34.696Z,82.77
2018-11-10T21:10:02.940Z,84.60
2018-11-10T21:12:31.162Z,89.67
2018-11-10T21:14:59.412Z,96.47
2018-11-10T21:17:27.640Z,92.87
2018-11-10T21:19:55.925Z,88.83
2018-11-10T21:22:24.128Z,90.33
2018-11-10T21:24:52.368Z,99.27
2018-11-10T21:27:20.589Z,99.60
2018-11-10T21:29:48.881Z,87.17
2018-11-10T21:32:17.077Z,112.77
2018-11-10T21:34:45.350Z,151.67
2018-11-10T21:37:13.589Z,201.53
2018-11-10T21:39:41.873Z,299.67
2018-11-10T21:42:10.112Z,420.53
2018-11-10T21:44:38.341Z,358.40
2018-11-10T21:47:06.596Z,372.77
2018-11-10T21:49:34.901Z,554.03
2018-11-10T21:52:03.094Z,481.60
